createdAt,value
2019-05-20T07:03:20.687Z,9.27
2019-05-20T07:05:25.602Z,7.90
2019-05-20T07:07:30.486Z,9.43
2019-05-20T07:09:35.428Z,8.70
2019-05-20T07:11:40.230Z,10.50
2019-05-20T07:13:45.153Z,8.03
2019-05-20T07:15:49.973Z,7.13
2019-05-20T07:17:54.712Z,10.27
2019-05-20T07:19:59.525Z,10.87
2019-05-20T07:22:04.369Z,9.40
2019-05-20T07:24:09.365Z,9.67
2019-05-20T07:26:14.126Z,10.57
2019-05-20T07:28:19.062Z,11.67
2019-05-20T07:30:23.767Z,11.17
2019-05-20T07:32:28.674Z,11.97
2019-05-20T07:34:33.384Z,11.57
2019-05-20T07:36:38.054Z,10.00
2019-05-20T07:38:43.987Z,11.40
2019-05-20T07:40:49.939Z,10.57
2019-05-20T07:42:54.657Z,10.23
2019-05-20T07:44:59.406Z,10.30
2019-05-20T07:47:04.217Z,10.40
2019-05-20T07:49:09.689Z,10.97
2019-05-20T07:51:14.484Z,11.53
2019-05-20T07:53:20.316Z,8.47
2019-05-20T07:55:25.321Z,9.53
2019-05-20T07:57:32.148Z,15.10
2019-05-20T07:59:37.025Z,17.70
2019-05-20T08:01:41.811Z,16.83
2019-05-20T08:03:46.643Z,15.17
2019-05-20T08:05:51.417Z,19.47
2019-05-20T08:07:56.191Z,13.57
2019-05-20T08:10:01.378Z,15.77
2019-05-20T08:12:06.409Z,14.83
2019-05-20T08:14:11.200Z,15.30
2019-05-20T08:16:15.974Z,15.93
2019-05-20T08:18:20.879Z,15.10
2019-05-20T08:20:25.642Z,15.83
2019-05-20T08:22:30.521Z,14.37
2019-05-20T08:24:35.464Z,9.80
2019-05-20T08:26:40.431Z,12.43
2019-05-20T08:28:45.373Z,10.93
2019-05-20T08:30:50.078Z,10.40
2019-05-20T08:32:54.946Z,14.37
2019-05-20T08:34:59.591Z,17.27
2019-05-20T08:37:04.349Z,12.47
2019-05-20T08:39:09.300Z,9.20
2019-05-20T08:41:14.344Z,13.50
2019-05-20T08:43:19.116Z,9.13
2019-05-20T08:45:23.890Z,9.77
2019-05-20T08:47:28.688Z,10.87
2019-05-20T08:49:33.464Z,11.30
2019-05-20T08:51:38.323Z,8.97
2019-05-20T08:53:43.288Z,9.57
2019-05-20T08:55:48.080Z,8.70
2019-05-20T08:57:52.863Z,12.10
2019-05-20T08:59:57.606Z,7.87
2019-05-20T09:02:02.498Z,7.50
2019-05-20T09:04:07.355Z,11.67
2019-05-20T09:06:12.143Z,6.90
2019-05-20T09:08:16.951Z,7.47
2019-05-20T09:10:21.672Z,11.80
2019-05-20T09:12:27.425Z,12.47
2019-05-20T09:14:32.367Z,9.90
2019-05-20T09:16:37.149Z,10.80
2019-05-20T09:18:41.979Z,9.20
2019-05-20T09:20:46.827Z,10.60
2019-05-20T09:22:52.780Z,10.63
2019-05-20T09:24:57.744Z,15.73
2019-05-20T09:27:02.680Z,8.97
2019-05-20T09:29:11.246Z,10.53
2019-05-20T09:31:14.498Z,9.13
2019-05-20T09:33:20.716Z,10.23
2019-05-20T09:35:25.748Z,14.03
2019-05-20T09:37:31.215Z,10.33
2019-05-20T09:39:36.136Z,10.73
2019-05-20T09:41:41.254Z,8.07
2019-05-20T09:43:46.109Z,7.63
2019-05-20T09:46:05.670Z,10.83
2019-05-20T09:47:57.163Z,7.80
2019-05-20T09:50:02.133Z,9.60
2019-05-20T09:52:07.377Z,7.70
2019-05-20T09:54:12.447Z,8.47
2019-05-20T09:56:17.395Z,10.47
2019-05-20T09:58:23.513Z,9.80
2019-05-20T10:00:30.022Z,12.90
2019-05-20T10:02:38.268Z,11.47
2019-05-20T10:04:41.284Z,7.73
2019-05-20T10:06:46.243Z,8.50
2019-05-20T10:08:51.305Z,10.13
2019-05-20T10:10:59.878Z,9.90
2019-05-20T10:13:03.695Z,8.53
2019-05-20T10:15:08.849Z,8.43
2019-05-20T10:17:13.688Z,8.63
2019-05-20T10:19:18.572Z,6.70
2019-05-20T10:21:23.341Z,9.13
2019-05-20T10:23:28.229Z,9.97
2019-05-20T10:25:33.035Z,7.77
2019-05-20T10:27:37.858Z,8.17
2019-05-20T10:29:42.606Z,10.53
2019-05-20T10:31:47.619Z,7.87
2019-05-20T10:33:52.552Z,9.83
2019-05-20T10:35:57.260Z,11.10
2019-05-20T10:38:02.210Z,10.80
2019-05-20T10:40:07.020Z,8.17
2019-05-20T10:42:12.066Z,8.33
2019-05-20T10:44:16.873Z,7.93
2019-05-20T10:46:21.827Z,7.80
2019-05-20T10:48:26.614Z,7.30
2019-05-20T10:50:34.327Z,7.87
2019-05-20T10:52:39.531Z,7.33
2019-05-20T10:54:44.299Z,9.17
2019-05-20T10:57:01.557Z,7.93
2019-05-20T10:59:06.556Z,9.43
2019-05-20T11:01:13.199Z,6.37
2019-05-20T11:03:17.974Z,8.20
2019-05-20T11:05:22.793Z,9.80
2019-05-20T11:07:27.758Z,7.87
2019-05-20T11:09:32.514Z,8.73
2019-05-20T11:11:45.327Z,8.93
2019-05-20T11:13:55.937Z,7.83
2019-05-20T11:16:00.847Z,7.17
2019-05-20T11:18:05.798Z,8.70
2019-05-20T11:20:10.653Z,11.30
2019-05-20T11:22:15.627Z,8.93
2019-05-20T11:24:20.593Z,9.43
2019-05-20T11:26:25.492Z,7.87
2019-05-20T11:28:30.296Z,10.67
2019-05-20T11:30:35.221Z,9.20
2019-05-20T11:32:40.000Z,8.27
2019-05-20T11:34:44.764Z,9.93
2019-05-20T11:36:49.586Z,10.07
2019-05-20T11:38:54.368Z,9.30
2019-05-20T11:40:59.211Z,7.97
2019-05-20T11:43:04.167Z,8.20
2019-05-20T11:45:09.030Z,7.90
2019-05-20T11:47:13.847Z,9.63
2019-05-20T11:49:18.694Z,11.10
2019-05-20T11:51:23.582Z,10.77
2019-05-20T11:53:28.413Z,10.53
2019-05-20T11:55:35.617Z,9.27
2019-05-20T11:57:40.370Z,11.70
2019-05-20T11:59:48.060Z,9.57
2019-05-20T12:01:52.868Z,9.50
2019-05-20T12:03:57.646Z,8.03
2019-05-20T12:06:03.276Z,11.43
2019-05-20T12:08:08.571Z,10.77
2019-05-20T12:10:13.495Z,10.93
2019-05-20T12:12:18.511Z,11.13
2019-05-20T12:14:23.223Z,10.27
2019-05-20T12:16:27.980Z,9.20
2019-05-20T12:18:33.278Z,12.77
2019-05-20T12:20:41.255Z,10.40
2019-05-20T12:22:46.933Z,12.00
2019-05-20T12:24:52.158Z,13.63
2019-05-20T12:26:56.902Z,9.87
2019-05-20T12:29:01.784Z,10.83
2019-05-20T12:31:06.620Z,9.90
2019-05-20T12:33:19.718Z,13.33
2019-05-20T12:35:17.875Z,12.90
2019-05-20T12:37:22.653Z,11.47
2019-05-20T12:39:27.413Z,9.57
2019-05-20T12:41:32.385Z,11.63
2019-05-20T12:43:37.340Z,10.40
2019-05-20T12:45:42.371Z,10.83
2019-05-20T12:47:47.411Z,10.60
2019-05-20T12:49:52.362Z,13.33
2019-05-20T12:51:57.092Z,10.77
2019-05-20T12:54:02.027Z,16.83
2019-05-20T12:56:07.115Z,10.93
2019-05-20T12:58:12.075Z,13.77
2019-05-20T13:00:17.219Z,10.73
2019-05-20T13:02:22.086Z,10.60
2019-05-20T13:04:27.055Z,10.50
2019-05-20T13:06:31.828Z,12.67
2019-05-20T13:08:36.631Z,9.80
2019-05-20T13:10:41.504Z,10.73
2019-05-20T13:12:47.513Z,12.43
2019-05-20T13:14:52.385Z,11.33
2019-05-20T13:16:58.106Z,12.80
2019-05-20T13:19:07.989Z,12.50
2019-05-20T13:21:13.955Z,12.20
2019-05-20T13:23:18.730Z,12.37
2019-05-20T13:25:23.604Z,12.20
2019-05-20T13:27:28.426Z,12.23
2019-05-20T13:29:33.225Z,12.40
2019-05-20T13:31:37.989Z,14.77
2019-05-20T13:33:42.877Z,12.77
2019-05-20T13:35:47.746Z,12.17
2019-05-20T13:37:52.596Z,11.47
2019-05-20T13:39:57.386Z,15.30
2019-05-20T13:42:02.099Z,12.80
2019-05-20T13:44:06.883Z,16.03
2019-05-20T13:46:11.708Z,15.43
2019-05-20T13:48:16.810Z,12.67
2019-05-20T13:50:21.647Z,14.47
2019-05-20T13:52:27.568Z,11.43
2019-05-20T13:54:32.423Z,13.63
2019-05-20T13:56:37.326Z,12.53
2019-05-20T13:58:42.151Z,13.17
2019-05-20T14:00:46.890Z,14.13
2019-05-20T14:02:51.648Z,12.13
2019-05-20T14:04:56.418Z,15.20
2019-05-20T14:07:01.206Z,13.30
2019-05-20T14:09:07.551Z,14.50
2019-05-20T14:11:12.702Z,11.50
2019-05-20T14:13:17.629Z,13.23
2019-05-20T14:15:22.312Z,12.57
2019-05-20T14:17:27.127Z,15.13
2019-05-20T14:19:31.896Z,12.87
2019-05-20T14:21:36.583Z,13.60
2019-05-20T14:23:41.494Z,15.83
2019-05-20T14:25:46.647Z,13.20
2019-05-20T14:27:51.456Z,12.13
2019-05-20T14:29:56.304Z,12.20
2019-05-20T14:32:01.112Z,12.67
2019-05-20T14:34:08.346Z,14.40
2019-05-20T14:36:13.139Z,13.70
2019-05-20T14:38:17.933Z,13.07
2019-05-20T14:40:22.741Z,13.63
2019-05-20T14:42:27.463Z,13.73
2019-05-20T14:44:34.803Z,12.53
2019-05-20T14:46:39.514Z,13.03
2019-05-20T14:48:44.297Z,15.03
2019-05-20T14:50:49.172Z,14.97
2019-05-20T14:52:55.220Z,14.60
2019-05-20T14:55:00.578Z,11.50
2019-05-20T14:57:05.478Z,17.07
2019-05-20T14:59:10.602Z,12.67
2019-05-20T15:01:15.431Z,11.97
2019-05-20T15:03:20.366Z,14.03
2019-05-20T15:05:25.231Z,13.83
2019-05-20T15:07:31.400Z,11.90
2019-05-20T15:09:36.441Z,14.13
2019-05-20T15:11:45.166Z,17.23
2019-05-20T15:13:50.033Z,12.43
2019-05-20T15:15:55.985Z,11.33
2019-05-20T15:18:00.807Z,12.50
2019-05-20T15:20:06.545Z,12.43
2019-05-20T15:22:12.851Z,14.77
2019-05-20T15:24:17.691Z,12.33
2019-05-20T15:26:22.832Z,9.73
2019-05-20T15:28:27.776Z,11.73
2019-05-20T15:30:33.306Z,11.70
2019-05-20T15:32:38.164Z,12.47
2019-05-20T15:34:43.112Z,13.93
2019-05-20T15:36:48.522Z,12.33
2019-05-20T15:38:53.537Z,17.33
2019-05-20T15:40:59.086Z,12.03
2019-05-20T15:43:04.602Z,8.30
2019-05-20T15:45:11.355Z,10.60
2019-05-20T15:47:20.249Z,12.20
2019-05-20T15:49:26.113Z,10.60
2019-05-20T15:51:31.207Z,10.27
2019-05-20T15:53:37.744Z,10.63
2019-05-20T15:55:44.509Z,12.07
2019-05-20T15:57:52.396Z,10.27
2019-05-20T16:00:00.419Z,10.23
2019-05-20T16:02:05.521Z,8.90
2019-05-20T16:04:14.467Z,14.23
2019-05-20T16:06:19.913Z,18.40
2019-05-20T16:08:28.479Z,9.03
2019-05-20T16:10:35.843Z,11.37
2019-05-20T16:12:42.983Z,10.53
2019-05-20T16:14:47.090Z,11.20
2019-05-20T16:16:52.029Z,11.23
2019-05-20T16:18:57.984Z,11.77
2019-05-20T16:21:03.878Z,10.37
2019-05-20T16:23:09.007Z,9.83
2019-05-20T16:25:14.115Z,8.47
2019-05-20T16:27:18.989Z,10.73
2019-05-20T16:29:24.145Z,9.00
2019-05-20T16:31:30.021Z,9.97
2019-05-20T16:33:59.382Z,10.13
2019-05-20T16:36:02.932Z,7.77
2019-05-20T16:38:08.033Z,10.77
2019-05-20T16:40:14.228Z,10.27
2019-05-20T16:42:19.353Z,8.00
2019-05-20T16:44:25.717Z,12.30
2019-05-20T16:46:30.585Z,9.50
2019-05-20T16:48:37.734Z,12.17
2019-05-20T16:50:42.521Z,9.40
2019-05-20T16:52:47.624Z,12.90
2019-05-20T16:54:52.453Z,10.13
2019-05-20T16:56:57.275Z,11.43
2019-05-20T16:59:03.707Z,13.23
2019-05-20T17:01:11.834Z,12.80
2019-05-20T17:03:16.671Z,11.17
2019-05-20T17:05:21.711Z,10.93
2019-05-20T17:07:26.450Z,9.90
2019-05-20T17:09:31.389Z,10.50
2019-05-20T17:11:36.224Z,12.43
2019-05-20T17:13:42.010Z,11.03
2019-05-20T17:15:46.812Z,11.40
2019-05-20T17:17:51.873Z,9.93
2019-05-20T17:19:56.688Z,9.57
2019-05-20T17:22:01.554Z,11.53
2019-05-20T17:24:06.972Z,8.50
2019-05-20T17:26:11.842Z,9.93
2019-05-20T17:28:16.612Z,9.93
2019-05-20T17:30:21.568Z,9.97
2019-05-20T17:32:26.533Z,13.27
2019-05-20T17:34:31.489Z,8.83
2019-05-20T17:36:36.368Z,15.63
2019-05-20T17:38:41.383Z,12.67
2019-05-20T17:40:46.143Z,12.53
2019-05-20T17:42:51.165Z,12.13
2019-05-20T17:44:56.180Z,14.10
2019-05-20T17:47:01.026Z,12.37
2019-05-20T17:49:06.048Z,13.87
2019-05-20T17:51:12.031Z,11.10
2019-05-20T17:53:18.262Z,18.23
2019-05-20T17:55:23.297Z,10.17
2019-05-20T17:57:28.532Z,14.63
2019-05-20T17:59:33.499Z,14.27
2019-05-20T18:01:38.357Z,11.23
2019-05-20T18:03:43.503Z,14.13
2019-05-20T18:05:48.286Z,15.50
2019-05-20T18:07:53.183Z,18.67
2019-05-20T18:09:57.991Z,16.77
2019-05-20T18:12:02.815Z,16.90
2019-05-20T18:14:07.949Z,15.10
2019-05-20T18:16:12.876Z,15.47
2019-05-20T18:18:17.952Z,23.63
2019-05-20T18:20:22.741Z,15.57
2019-05-20T18:22:27.758Z,16.77
2019-05-20T18:24:32.591Z,15.10
2019-05-20T18:26:37.917Z,14.37
2019-05-20T18:28:44.429Z,18.00
2019-05-20T18:30:54.076Z,13.03
2019-05-20T18:32:59.692Z,17.33
2019-05-20T18:35:08.671Z,18.63
2019-05-20T18:37:15.151Z,16.73
2019-05-20T18:39:20.086Z,18.10
2019-05-20T18:41:29.122Z,15.10
2019-05-20T18:43:34.150Z,14.47
2019-05-20T18:45:39.034Z,24.67
2019-05-20T18:47:44.258Z,17.67
2019-05-20T18:49:49.339Z,13.93
2019-05-20T18:51:54.234Z,15.60
2019-05-20T18:53:59.531Z,15.07
2019-05-20T18:56:05.119Z,15.80
2019-05-20T18:58:10.173Z,18.43
2019-05-20T19:00:15.913Z,13.43
2019-05-20T19:02:20.777Z,19.70
2019-05-20T19:04:25.986Z,13.30
2019-05-20T19:06:32.030Z,19.47
2019-05-20T19:09:03.881Z,17.90
2019-05-20T19:11:10.627Z,15.83
2019-05-20T19:13:23.286Z,18.83
2019-05-20T19:15:29.466Z,19.60
2019-05-20T19:17:34.626Z,16.47
2019-05-20T19:19:39.731Z,18.07
2019-05-20T19:21:44.710Z,15.47
2019-05-20T19:23:49.962Z,23.20
2019-05-20T19:26:00.110Z,13.83
2019-05-20T19:28:06.405Z,18.60
2019-05-20T19:30:12.175Z,18.40
2019-05-20T19:32:18.820Z,19.97
2019-05-20T19:34:24.114Z,13.07
2019-05-20T19:36:32.257Z,12.43
2019-05-20T19:38:38.336Z,15.23
2019-05-20T19:40:44.067Z,16.07
2019-05-20T19:42:51.829Z,13.03
2019-05-20T19:44:58.507Z,13.70
2019-05-20T19:47:03.798Z,14.57
2019-05-20T19:49:09.741Z,14.37
2019-05-20T19:51:15.821Z,13.30
2019-05-20T19:53:21.104Z,19.20
2019-05-20T19:55:28.902Z,13.03
2019-05-20T19:57:34.484Z,11.83
